Weston, West Virginia
Current Conditions -  °F | °C
As of 8:15 AM on Saturday 25 Oct 2014 (Local Time) from KW22 Reporting Station
Few Clouds Few Clouds  
Wind Chill:   Ceiling: Unl
Heat Index:   Visibility: 10mi
Dew Point:   Wind: 0mph
Humidity: 93%   Direction: NA
Pressure: 30.03"   Gusts: NA
Location:  39.04°N, 80.47°W
Report Text: KW22 251215Z AUTO 00000KT 10SM FEW042 04/03 A3003 RMK AO2
Loading
Personal Weather Stations






























Interactive Weather Map
Tropical Storm Tracking
New forecast layout! Learn more

10-Day Weather Forecast

Advertisements
Track Severe Weather on mobile